createdAt,value
2022-08-07T00:00:30.646Z,68743.53
2022-08-07T00:02:57.866Z,68741.66
2022-08-07T00:05:25.612Z,68733.84
2022-08-07T00:08:00.141Z,68735.56
2022-08-07T00:10:31.034Z,68741.09
2022-08-07T00:13:09.555Z,68728.75
2022-08-07T00:15:46.774Z,68730.84
2022-08-07T00:18:24.039Z,68718.88
2022-08-07T00:20:54.390Z,68728.38
2022-08-07T00:23:21.824Z,68731.75
2022-08-07T00:25:52.511Z,68728.00
2022-08-07T00:28:33.532Z,68712.06
2022-08-07T00:31:06.440Z,68715.13
2022-08-07T00:33:40.968Z,68706.56
2022-08-07T00:36:09.584Z,68709.59
2022-08-07T00:38:39.135Z,68705.06
2022-08-07T00:41:10.004Z,68713.03
2022-08-07T00:43:59.012Z,68717.56
2022-08-07T00:46:30.299Z,68717.56
2022-08-07T00:49:02.941Z,68716.81
2022-08-07T00:51:57.739Z,68722.50
2022-08-07T00:54:19.826Z,68729.13
2022-08-07T00:56:49.571Z,68720.78
2022-08-07T00:59:35.031Z,68713.22
2022-08-07T01:02:09.036Z,68728.75
2022-08-07T01:04:47.658Z,68717.75
2022-08-07T01:07:16.282Z,68734.63
2022-08-07T01:10:05.038Z,68724.78
2022-08-07T01:12:31.375Z,68718.88
2022-08-07T01:15:00.931Z,68712.06
2022-08-07T01:17:30.213Z,68717.94
2022-08-07T01:20:04.012Z,68715.47
2022-08-07T01:22:32.215Z,68726.47
2022-08-07T01:25:00.901Z,68728.38
2022-08-07T01:27:32.734Z,68722.28
2022-08-07T01:30:02.679Z,68734.41
2022-08-07T01:32:30.857Z,68730.28
2022-08-07T01:35:01.094Z,68731.59
2022-08-07T01:37:29.969Z,68738.97
2022-08-07T01:40:04.915Z,68731.75
2022-08-07T01:42:57.251Z,68724.19
2022-08-07T01:45:37.368Z,68714.50
2022-08-07T01:48:19.467Z,68725.72
2022-08-07T01:50:55.664Z,68728.75
2022-08-07T01:53:35.142Z,68722.69
2022-08-07T01:56:25.440Z,68719.25
2022-08-07T01:59:15.893Z,68717.38
2022-08-07T02:02:02.360Z,68705.06
2022-08-07T02:04:52.668Z,68703.56
2022-08-07T02:07:44.881Z,68682.88
2022-08-07T02:10:25.844Z,68693.31
2022-08-07T02:12:59.643Z,68670.56
2022-08-07T02:15:34.196Z,68664.16
2022-08-07T02:18:03.326Z,68658.66
2022-08-07T02:20:33.213Z,68673.63
2022-08-07T02:23:05.160Z,68668.69
2022-08-07T02:26:31.176Z,68639.88
2022-08-07T02:28:28.635Z,68616.03
2022-08-07T02:31:24.688Z,68613.38
2022-08-07T02:34:03.073Z,68613.38
2022-08-07T02:36:34.549Z,68603.56
2022-08-07T02:39:17.231Z,68598.44
2022-08-07T02:41:59.876Z,68592.75
2022-08-07T02:44:34.758Z,68595.22
2022-08-07T02:47:06.884Z,68587.25
2022-08-07T02:49:57.585Z,68597.66
2022-08-07T02:52:32.642Z,68595.78
2022-08-07T02:55:15.293Z,68592.38
2022-08-07T02:58:04.087Z,68600.31
2022-08-07T03:00:36.047Z,68597.47
2022-08-07T03:03:13.640Z,68596.94
2022-08-07T03:05:45.838Z,68580.84
2022-08-07T03:08:17.917Z,68563.78
2022-08-07T03:10:55.767Z,68555.06
2022-08-07T03:13:29.487Z,68555.06
2022-08-07T03:16:08.597Z,68568.91
2022-08-07T03:18:38.231Z,68555.47
2022-08-07T03:21:08.173Z,68538.25
2022-08-07T03:24:18.331Z,68552.25
2022-08-07T03:26:32.197Z,68558.69
2022-08-07T03:29:05.716Z,68552.81
2022-08-07T03:31:43.255Z,68550.16
2022-08-07T03:34:18.712Z,68528.03
2022-08-07T03:36:55.081Z,68500.56
2022-08-07T03:39:46.249Z,68491.13
2022-08-07T03:42:15.952Z,68496.41
2022-08-07T03:44:47.144Z,68491.88
2022-08-07T03:47:22.822Z,68478.63
2022-08-07T03:49:52.462Z,68487.72
2022-08-07T03:52:26.352Z,68493.00
2022-08-07T03:55:06.844Z,68497.75
2022-08-07T03:58:32.676Z,68508.72
2022-08-07T04:00:35.342Z,68506.06
2022-08-07T04:03:05.242Z,68495.28
2022-08-07T04:05:41.072Z,68500.00
2022-08-07T04:08:21.409Z,68498.13
2022-08-07T04:10:54.543Z,68493.38
2022-08-07T04:14:14.052Z,68501.50
2022-08-07T04:16:31.058Z,68503.63
2022-08-07T04:19:04.268Z,68510.63
2022-08-07T04:21:48.105Z,68516.84
2022-08-07T04:24:34.259Z,68524.81
2022-08-07T04:27:15.155Z,68533.34
2022-08-07T04:30:02.152Z,68534.09
2022-08-07T04:32:48.041Z,68542.03
2022-08-07T04:35:26.170Z,68548.66
2022-08-07T04:38:03.952Z,68547.13
2022-08-07T04:40:43.919Z,68552.06
2022-08-07T04:44:12.106Z,68566.06
2022-08-07T04:47:04.092Z,68569.66
2022-08-07T04:50:04.201Z,68577.03
2022-08-07T04:52:51.410Z,68579.88
2022-08-07T04:58:14.295Z,68594.84
2022-08-07T04:58:33.708Z,68618.69
2022-08-07T05:01:30.226Z,68612.25
2022-08-07T05:04:17.395Z,68606.56
2022-08-07T05:07:30.578Z,68620.38
2022-08-07T05:10:24.816Z,68637.22
2022-08-07T05:14:44.440Z,68653.91
2022-08-07T05:15:53.543Z,68670.19
2022-08-07T05:18:35.340Z,68704.31
2022-08-07T05:21:04.902Z,68705.63
2022-08-07T05:23:38.210Z,68716.59
2022-08-07T05:26:18.755Z,68741.81
2022-08-07T05:28:57.400Z,68745.44
2022-08-07T05:31:37.699Z,68750.53
2022-08-07T05:34:12.107Z,68765.34
2022-08-07T05:36:48.956Z,68770.41
2022-08-07T05:40:17.521Z,68796.03
2022-08-07T05:42:34.218Z,68780.84
2022-08-07T05:45:25.866Z,68791.06
2022-08-07T05:48:02.687Z,68801.72
2022-08-07T05:50:44.732Z,68818.38
2022-08-07T05:54:13.263Z,68852.72
2022-08-07T05:56:05.805Z,68868.66
2022-08-07T05:58:39.339Z,68894.84
2022-08-07T06:01:11.909Z,68909.41
2022-08-07T06:03:56.275Z,68921.94
2022-08-07T06:06:29.752Z,68945.50
2022-08-07T06:09:04.701Z,68965.22
2022-08-07T06:11:35.018Z,68976.41
2022-08-07T06:14:12.853Z,68988.56
2022-08-07T06:16:50.372Z,69030.34
2022-08-07T06:19:57.619Z,69039.25
2022-08-07T06:22:15.416Z,69058.47
2022-08-07T06:24:57.870Z,69086.38
2022-08-07T06:27:44.158Z,69128.91
2022-08-07T06:30:32.048Z,69154.75
2022-08-07T06:33:15.592Z,69155.50
2022-08-07T06:36:06.200Z,69208.38
2022-08-07T06:38:38.084Z,69190.06
2022-08-07T06:42:01.586Z,69235.75
2022-08-07T06:44:21.042Z,69263.28
2022-08-07T06:46:53.181Z,69260.25
2022-08-07T06:49:28.378Z,69274.72
2022-08-07T06:51:59.549Z,69270.16
2022-08-07T06:55:31.678Z,69288.59
2022-08-07T06:57:39.414Z,69314.06
2022-08-07T07:00:18.388Z,69275.09
2022-08-07T07:02:54.263Z,69301.53
2022-08-07T07:06:02.816Z,69309.34
2022-08-07T07:08:18.202Z,69321.91
2022-08-07T07:10:47.407Z,69335.19
2022-08-07T07:13:43.653Z,69363.94
2022-08-07T07:16:22.079Z,69379.72
2022-08-07T07:18:57.408Z,69349.28
2022-08-07T07:21:40.524Z,69361.25
2022-08-07T07:24:20.766Z,69389.03
2022-08-07T07:26:53.188Z,69415.84
2022-08-07T07:29:56.781Z,69399.28
2022-08-07T07:32:14.338Z,69417.38
2022-08-07T07:34:48.668Z,69432.25
2022-08-07T07:37:43.878Z,69433.41
2022-08-07T07:40:14.698Z,69456.22
2022-08-07T07:42:55.419Z,69446.75
2022-08-07T07:46:37.704Z,69439.66
2022-08-07T07:48:34.786Z,69470.34
2022-08-07T07:51:07.982Z,69483.09
2022-08-07T07:53:51.248Z,69469.94
2022-08-07T07:56:30.335Z,69504.97
2022-08-07T07:59:00.433Z,69531.31
2022-08-07T08:02:03.337Z,69537.34
2022-08-07T08:04:25.397Z,69554.75
2022-08-07T08:06:54.864Z,69561.97
2022-08-07T08:09:25.348Z,69572.47
2022-08-07T08:12:02.452Z,69577.53
2022-08-07T08:14:36.392Z,69556.63
2022-08-07T08:17:32.357Z,69551.47
2022-08-07T08:20:17.116Z,69536.94
2022-08-07T08:23:14.353Z,69556.78
2022-08-07T08:27:20.470Z,69568.81
2022-08-07T08:28:52.109Z,69587.50
2022-08-07T08:31:58.789Z,69642.69
2022-08-07T08:34:32.896Z,69656.59
2022-08-07T08:37:03.289Z,69675.88
2022-08-07T08:39:39.571Z,69671.88
2022-08-07T08:42:41.101Z,69690.00
2022-08-07T08:45:58.752Z,69712.16
2022-08-07T08:48:46.934Z,69691.59
2022-08-07T08:51:26.288Z,69632.66
2022-08-07T08:54:16.389Z,69616.50
2022-08-07T08:56:48.720Z,69600.81
2022-08-07T08:59:42.135Z,69640.81
2022-08-07T09:02:37.539Z,69722.63
2022-08-07T09:05:36.854Z,69740.94
2022-08-07T09:08:24.395Z,69752.38
2022-08-07T09:11:24.693Z,69714.63
2022-08-07T09:14:20.171Z,69680.13
2022-08-07T09:16:47.625Z,69626.13
2022-08-07T09:19:52.902Z,69591.66
2022-08-07T09:24:53.643Z,69658.56
2022-08-07T09:25:41.458Z,69743.81
2022-08-07T09:30:05.704Z,69766.69
2022-08-07T09:31:17.030Z,69747.06
2022-08-07T09:33:58.283Z,69779.84
2022-08-07T09:36:52.789Z,69773.00
2022-08-07T09:39:53.801Z,69783.28
2022-08-07T09:42:42.270Z,69753.69
2022-08-07T09:47:25.279Z,69774.72
2022-08-07T09:48:50.143Z,69758.09
2022-08-07T09:52:16.729Z,69724.75
2022-08-07T09:54:50.713Z,69667.13
2022-08-07T09:57:20.747Z,69635.53
2022-08-07T10:00:04.057Z,69669.44
2022-08-07T10:02:40.095Z,69707.19
2022-08-07T10:05:59.651Z,69735.53
2022-08-07T10:08:34.982Z,69758.94
2022-08-07T10:12:02.288Z,69717.63
2022-08-07T10:14:36.002Z,69693.19
2022-08-07T10:17:19.227Z,69753.94
2022-08-07T10:19:58.754Z,69790.72
2022-08-07T10:22:57.783Z,69830.06
2022-08-07T10:25:47.179Z,69821.47
2022-08-07T10:28:41.585Z,69825.88
2022-08-07T10:31:38.792Z,69838.97
2022-08-07T10:34:45.275Z,69850.44
2022-08-07T10:37:48.387Z,69852.53
2022-08-07T10:40:45.215Z,69865.16
2022-08-07T10:43:34.111Z,69882.31
2022-08-07T10:46:15.752Z,69882.47
2022-08-07T10:48:58.084Z,69932.00
2022-08-07T10:52:01.971Z,69928.72
2022-08-07T10:55:01.042Z,69931.59
2022-08-07T10:57:59.358Z,69885.59
2022-08-07T11:00:36.460Z,69887.47
2022-08-07T11:03:23.297Z,69848.81
2022-08-07T11:06:02.941Z,69885.19
2022-08-07T11:09:11.665Z,69892.22
2022-08-07T11:12:03.045Z,69865.88
2022-08-07T11:14:45.905Z,69881.75
2022-08-07T11:17:45.327Z,69879.72
2022-08-07T11:20:35.698Z,69912.69
2022-08-07T11:23:20.748Z,69883.03
2022-08-07T11:26:14.202Z,69874.47
2022-08-07T11:29:05.468Z,69844.38
2022-08-07T11:32:25.389Z,69856.53
2022-08-07T11:35:28.672Z,69840.53
2022-08-07T11:38:10.491Z,69847.41
2022-08-07T11:41:03.427Z,69888.63
2022-08-07T11:44:11.430Z,69835.66
2022-08-07T11:46:57.034Z,69867.00
2022-08-07T11:50:11.516Z,69895.47
2022-08-07T11:52:37.687Z,69902.94
2022-08-07T11:56:25.131Z,69894.91
2022-08-07T11:59:01.516Z,69886.56
2022-08-07T12:01:59.198Z,69877.00
2022-08-07T12:05:15.053Z,69884.03
2022-08-07T12:08:05.421Z,69901.06
2022-08-07T12:10:45.253Z,69917.25
2022-08-07T12:13:42.158Z,69924.56
2022-08-07T12:16:30.763Z,69892.22
2022-08-07T12:19:21.992Z,69898.63
2022-08-07T12:22:39.355Z,69936.88
2022-08-07T12:26:02.797Z,69951.06
2022-08-07T12:28:34.529Z,69922.97
2022-08-07T12:31:17.249Z,69925.69
2022-08-07T12:34:01.424Z,69904.81
2022-08-07T12:36:33.276Z,69913.84
2022-08-07T12:39:09.426Z,69923.25
2022-08-07T12:41:55.450Z,69904.50
2022-08-07T12:44:26.091Z,69917.66
2022-08-07T12:47:27.044Z,69931.59
2022-08-07T12:50:39.396Z,69947.06
2022-08-07T12:53:27.639Z,69926.09
2022-08-07T12:56:02.817Z,69909.81
2022-08-07T12:58:39.326Z,69912.25
2022-08-07T13:01:32.497Z,69886.59
2022-08-07T13:05:01.625Z,69936.41
2022-08-07T13:08:14.055Z,69963.66
2022-08-07T13:10:55.804Z,69981.59
2022-08-07T13:13:48.262Z,69965.94
2022-08-07T13:16:29.824Z,69919.72
2022-08-07T13:19:21.649Z,69923.56
2022-08-07T13:22:05.126Z,69934.28
2022-08-07T13:25:07.135Z,69908.09
2022-08-07T13:28:13.078Z,69960.22
2022-08-07T13:30:40.500Z,69986.59
2022-08-07T13:34:30.213Z,69953.19
2022-08-07T13:36:39.692Z,69955.22
2022-08-07T13:40:34.268Z,69942.31
2022-08-07T13:42:21.546Z,69927.81
2022-08-07T13:45:11.709Z,69992.75
2022-08-07T13:48:08.320Z,69987.31
2022-08-07T13:50:33.064Z,70007.63
2022-08-07T13:53:05.419Z,69963.34
2022-08-07T13:55:37.203Z,69958.66
2022-08-07T13:58:31.761Z,69957.34
2022-08-07T14:01:09.250Z,69953.34
2022-08-07T14:04:08.179Z,69968.81
2022-08-07T14:06:33.005Z,69969.94
2022-08-07T14:09:01.428Z,69984.69
2022-08-07T14:11:53.267Z,69975.84
2022-08-07T14:14:31.366Z,69967.66
2022-08-07T14:17:32.286Z,69997.06
2022-08-07T14:20:43.674Z,69997.63
2022-08-07T14:23:08.588Z,69982.16
2022-08-07T14:25:47.935Z,69990.28
2022-08-07T14:28:18.307Z,70008.91
2022-08-07T14:30:52.234Z,70017.94
2022-08-07T14:36:09.677Z,69985.84
2022-08-07T14:38:50.645Z,69950.63
2022-08-07T14:41:33.856Z,69975.09
2022-08-07T14:44:10.027Z,69964.81
2022-08-07T14:47:14.373Z,69932.16
2022-08-07T14:49:57.582Z,69956.38
2022-08-07T14:52:32.155Z,69969.38
2022-08-07T14:55:01.805Z,69907.78
2022-08-07T14:57:57.952Z,69932.41
2022-08-07T15:00:30.373Z,69958.66
2022-08-07T15:02:59.240Z,69970.09
2022-08-07T15:05:30.371Z,69992.31
2022-08-07T15:08:05.030Z,69956.94
2022-08-07T15:10:32.728Z,69941.88
2022-08-07T15:13:06.477Z,69942.44
2022-08-07T15:15:43.889Z,69935.41
2022-08-07T15:18:34.807Z,69917.09
2022-08-07T15:25:14.122Z,69923.25
2022-08-07T15:26:55.661Z,69912.38
2022-08-07T15:30:08.746Z,69939.75
2022-08-07T15:32:13.422Z,69944.19
2022-08-07T15:38:04.842Z,69929.88
2022-08-07T15:40:33.845Z,69946.88
2022-08-07T15:43:53.518Z,69938.72
2022-08-07T15:46:31.902Z,69936.00
2022-08-07T15:49:12.942Z,69942.06
2022-08-07T15:54:39.601Z,69909.66
2022-08-07T15:57:39.334Z,69879.31
2022-08-07T16:00:06.429Z,69901.47
2022-08-07T16:02:40.479Z,69898.91
2022-08-07T16:05:13.031Z,69887.75
2022-08-07T16:08:32.160Z,69913.84
2022-08-07T16:10:37.665Z,69931.59
2022-08-07T16:13:57.737Z,69922.41
2022-08-07T16:16:48.167Z,69924.69
2022-08-07T16:19:43.128Z,69932.00
2022-08-07T16:23:05.496Z,69932.72
2022-08-07T16:26:05.127Z,69894.91
2022-08-07T16:30:06.977Z,69855.84
2022-08-07T16:32:33.144Z,69852.16
2022-08-07T16:34:59.869Z,69860.56
2022-08-07T16:38:04.037Z,69850.81
2022-08-07T16:41:06.266Z,69823.34
2022-08-07T16:44:47.325Z,69822.75
2022-08-07T16:47:50.890Z,69845.50
2022-08-07T16:50:39.206Z,69851.66
2022-08-07T16:54:03.134Z,69846.81
2022-08-07T16:56:53.230Z,69825.66
2022-08-07T16:59:55.787Z,69807.47
2022-08-07T17:02:58.902Z,69797.00
2022-08-07T17:06:19.160Z,69770.69
2022-08-07T17:10:05.085Z,69767.09
2022-08-07T17:12:33.883Z,69763.25
2022-08-07T17:15:15.584Z,69756.22
2022-08-07T17:17:49.070Z,69734.78
2022-08-07T17:20:31.462Z,69707.50
2022-08-07T17:23:32.216Z,69729.47
2022-08-07T17:26:36.824Z,69726.63
2022-08-07T17:30:14.531Z,69711.75
2022-08-07T17:34:17.914Z,69689.28
2022-08-07T17:36:58.021Z,69683.16
2022-08-07T17:39:58.424Z,69674.00
2022-08-07T17:42:29.606Z,69664.69
2022-08-07T17:44:58.996Z,69653.25
2022-08-07T17:48:01.657Z,69654.97
2022-08-07T17:58:52.483Z,69633.81
2022-08-07T18:02:11.570Z,69622.94
2022-08-07T18:09:00.533Z,69605.94
2022-08-07T18:12:08.389Z,69605.06
2022-08-07T18:14:59.969Z,69601.81
2022-08-07T18:18:46.849Z,69592.22
2022-08-07T18:21:12.329Z,69568.81
2022-08-07T18:23:43.564Z,69567.91
2022-08-07T18:26:18.933Z,69563.31
2022-08-07T18:30:06.027Z,69537.94
2022-08-07T18:32:13.139Z,69536.63
2022-08-07T18:35:10.486Z,69529.59
2022-08-07T18:38:58.569Z,69530.16
2022-08-07T18:41:20.490Z,69513.94
2022-08-07T18:43:57.888Z,69503.66
2022-08-07T18:46:46.281Z,69506.50
2022-08-07T18:50:32.921Z,69500.78
2022-08-07T18:52:51.660Z,69481.97
2022-08-07T18:55:42.763Z,69469.59
2022-08-07T18:58:19.980Z,69474.19
2022-08-07T19:01:00.889Z,69470.91
2022-08-07T19:04:09.827Z,69465.78
2022-08-07T19:07:09.822Z,69469.19
2022-08-07T19:10:21.890Z,69468.63
2022-08-07T19:12:58.238Z,69468.22
2022-08-07T19:16:04.374Z,69455.66
2022-08-07T19:18:44.624Z,69467.72
2022-08-07T19:21:44.188Z,69455.31
2022-08-07T19:24:30.026Z,69440.66
2022-08-07T19:28:57.948Z,69424.06
2022-08-07T19:31:03.087Z,69425.06
2022-08-07T19:32:45.144Z,69426.94
2022-08-07T19:35:18.970Z,69434.44
2022-08-07T19:37:59.555Z,69418.94
2022-08-07T19:40:31.406Z,69412.69
2022-08-07T19:43:07.957Z,69410.22
2022-08-07T19:46:05.587Z,69402.38
2022-08-07T19:48:44.365Z,69408.09
2022-08-07T19:51:51.340Z,69415.50
2022-08-07T19:54:44.012Z,69413.25
2022-08-07T19:58:03.554Z,69409.25
2022-08-07T19:59:55.223Z,69393.81
2022-08-07T20:02:30.233Z,69390.97
2022-08-07T20:05:02.903Z,69385.84
2022-08-07T20:07:47.201Z,69392.69
2022-08-07T20:10:38.059Z,69382.97
2022-08-07T20:13:22.954Z,69386.81
2022-08-07T20:15:53.947Z,69389.84
2022-08-07T20:18:32.972Z,69395.53
2022-08-07T20:21:14.294Z,69406.22
2022-08-07T20:23:53.847Z,69400.09
2022-08-07T20:26:32.492Z,69392.69
2022-08-07T20:29:17.036Z,69373.84
2022-08-07T20:32:01.284Z,69336.16
2022-08-07T20:34:49.384Z,69327.41
2022-08-07T20:37:23.454Z,69309.50
2022-08-07T20:40:04.368Z,69315.03
2022-08-07T20:42:35.224Z,69330.09
2022-08-07T20:46:24.971Z,69330.84
2022-08-07T20:47:57.846Z,69336.00
2022-08-07T20:50:28.939Z,69328.56
2022-08-07T20:52:59.632Z,69331.59
2022-08-07T20:55:32.233Z,69314.47
2022-08-07T20:58:12.283Z,69304.38
2022-08-07T21:00:53.791Z,69301.19
2022-08-07T21:03:25.897Z,69289.94
2022-08-07T21:06:03.650Z,69286.53
2022-08-07T21:09:14.244Z,69287.09
2022-08-07T21:11:51.363Z,69274.94
2022-08-07T21:14:40.253Z,69267.66
2022-08-07T21:18:03.309Z,69259.28
2022-08-07T21:20:26.715Z,69252.84
2022-08-07T21:23:08.375Z,69257.81
2022-08-07T21:25:52.239Z,69252.84
2022-08-07T21:28:49.786Z,69243.16
2022-08-07T21:31:31.357Z,69240.69
2022-08-07T21:34:48.440Z,69241.25
2022-08-07T21:37:24.016Z,69226.03
2022-08-07T21:40:04.282Z,69224.72
2022-08-07T21:43:05.239Z,69208.53
2022-08-07T21:46:08.386Z,69211.63
2022-08-07T21:48:43.864Z,69193.94
2022-08-07T21:51:24.908Z,69177.97
2022-08-07T21:54:12.871Z,69164.06
2022-08-07T21:57:30.934Z,69170.72
2022-08-07T22:00:19.221Z,69170.72
2022-08-07T22:03:05.830Z,69157.44
2022-08-07T22:05:45.877Z,69156.88
2022-08-07T22:08:20.916Z,69162.22
2022-08-07T22:10:51.614Z,69159.13
2022-08-07T22:13:24.568Z,69150.75
2022-08-07T22:16:38.481Z,69153.03
2022-08-07T22:19:16.486Z,69134.81
2022-08-07T22:22:04.365Z,69132.34
2022-08-07T22:24:45.466Z,69123.25
2022-08-07T22:27:19.296Z,69121.53
2022-08-07T22:30:00.880Z,69117.53
2022-08-07T22:32:39.204Z,69109.94
2022-08-07T22:35:11.307Z,69105.75
2022-08-07T22:38:10.219Z,69099.47
2022-08-07T22:41:16.535Z,69088.25
2022-08-07T22:43:51.351Z,69091.31
2022-08-07T22:47:03.564Z,69088.66
2022-08-07T22:49:54.310Z,69094.00
2022-08-07T22:53:03.499Z,69084.09
2022-08-07T22:55:49.467Z,69079.16
2022-08-07T22:58:30.669Z,69073.84
2022-08-07T23:01:06.298Z,69069.09
2022-08-07T23:03:58.151Z,69055.59
2022-08-07T23:06:38.832Z,69045.50
2022-08-07T23:10:06.205Z,69050.84
2022-08-07T23:12:51.353Z,69040.94
2022-08-07T23:16:06.646Z,69044.59
2022-08-07T23:19:14.827Z,69049.16
2022-08-07T23:22:05.282Z,69034.69
2022-08-07T23:25:08.797Z,69033.94
2022-08-07T23:28:28.889Z,69008.31
2022-08-07T23:32:50.342Z,69006.03
2022-08-07T23:34:37.323Z,69000.34
2022-08-07T23:37:37.355Z,69000.16
2022-08-07T23:40:30.925Z,68995.78
2022-08-07T23:43:18.954Z,68992.38
2022-08-07T23:46:07.533Z,68987.44
2022-08-07T23:48:58.703Z,68985.53
2022-08-07T23:52:59.709Z,68983.09
2022-08-07T23:54:36.079Z,68977.75
2022-08-07T23:57:34.871Z,68975.84
